sensor_id;sensor_type;location;lat;lon;timestamp;temperature;humidity
2571;DHT22;1295;51.130;6.732;2023-09-19T00:01:06;19.80;99.90
2571;DHT22;1295;51.130;6.732;2023-09-19T00:03:31;19.30;99.90
2571;DHT22;1295;51.130;6.732;2023-09-19T00:05:57;19.70;99.90
2571;DHT22;1295;51.130;6.732;2023-09-19T00:08:23;19.60;99.90
2571;DHT22;1295;51.130;6.732;2023-09-19T00:10:48;19.90;99.90
2571;DHT22;1295;51.130;6.732;2023-09-19T00:13:14;20.30;99.90
2571;DHT22;1295;51.130;6.732;2023-09-19T00:15:41;20.00;99.90
2571;DHT22;1295;51.130;6.732;2023-09-19T00:18:06;20.00;99.90
2571;DHT22;1295;51.130;6.732;2023-09-19T00:20:31;19.70;99.90
2571;DHT22;1295;51.130;6.732;2023-09-19T00:22:58;19.40;99.90
2571;DHT22;1295;51.130;6.732;2023-09-19T00:25:23;19.40;99.90
2571;DHT22;1295;51.130;6.732;2023-09-19T00:27:50;19.70;99.90
2571;DHT22;1295;51.130;6.732;2023-09-19T00:30:15;19.70;99.90
2571;DHT22;1295;51.130;6.732;2023-09-19T00:32:42;19.80;99.90
2571;DHT22;1295;51.130;6.732;2023-09-19T00:35:14;19.80;99.90
2571;DHT22;1295;51.130;6.732;2023-09-19T00:37:39;19.10;99.90
2571;DHT22;1295;51.130;6.732;2023-09-19T00:40:07;19.50;99.90
2571;DHT22;1295;51.130;6.732;2023-09-19T00:42:33;20.00;99.90
2571;DHT22;1295;51.130;6.732;2023-09-19T00:44:59;20.00;99.90
2571;DHT22;1295;51.130;6.732;2023-09-19T00:47:25;20.10;99.90
2571;DHT22;1295;51.130;6.732;2023-09-19T00:49:50;19.70;99.90
2571;DHT22;1295;51.130;6.732;2023-09-19T00:52:17;20.00;99.90
2571;DHT22;1295;51.130;6.732;2023-09-19T00:54:42;20.00;99.90
2571;DHT22;1295;51.130;6.732;2023-09-19T00:57:08;20.10;99.90
2571;DHT22;1295;51.130;6.732;2023-09-19T00:59:34;19.50;99.90
2571;DHT22;1295;51.130;6.732;2023-09-19T01:02:00;19.40;99.90
2571;DHT22;1295;51.130;6.732;2023-09-19T01:04:26;19.50;99.90
2571;DHT22;1295;51.130;6.732;2023-09-19T01:06:52;19.50;99.90
2571;DHT22;1295;51.130;6.732;2023-09-19T01:09:19;19.10;99.90
2571;DHT22;1295;51.130;6.732;2023-09-19T01:11:47;18.50;99.90
2571;DHT22;1295;51.130;6.732;2023-09-19T01:14:29;18.50;99.90
2571;DHT22;1295;51.130;6.732;2023-09-19T01:17:14;19.10;99.90
2571;DHT22;1295;51.130;6.732;2023-09-19T01:20:03;18.90;99.90
2571;DHT22;1295;51.130;6.732;2023-09-19T01:22:36;19.50;99.90
2571;DHT22;1295;51.130;6.732;2023-09-19T01:29:01;19.70;99.90
2571;DHT22;1295;51.130;6.732;2023-09-19T01:30:36;19.90;99.90
2571;DHT22;1295;51.130;6.732;2023-09-19T01:33:01;19.50;99.90
2571;DHT22;1295;51.130;6.732;2023-09-19T01:35:27;19.40;99.90
2571;DHT22;1295;51.130;6.732;2023-09-19T01:37:52;18.80;99.90
2571;DHT22;1295;51.130;6.732;2023-09-19T01:40:18;18.90;99.90
2571;DHT22;1295;51.130;6.732;2023-09-19T01:43:11;19.20;99.90
2571;DHT22;1295;51.130;6.732;2023-09-19T01:46:02;19.00;99.90
2571;DHT22;1295;51.130;6.732;2023-09-19T01:48:25;18.90;99.90
2571;DHT22;1295;51.130;6.732;2023-09-19T01:50:55;18.80;99.90
2571;DHT22;1295;51.130;6.732;2023-09-19T01:53:21;18.80;99.90
2571;DHT22;1295;51.130;6.732;2023-09-19T01:55:47;18.30;99.90
2571;DHT22;1295;51.130;6.732;2023-09-19T01:58:16;18.90;99.90
2571;DHT22;1295;51.130;6.732;2023-09-19T02:00:40;18.90;99.90
2571;DHT22;1295;51.130;6.732;2023-09-19T02:03:05;19.40;99.90
2571;DHT22;1295;51.130;6.732;2023-09-19T02:05:31;19.10;99.90
2571;DHT22;1295;51.130;6.732;2023-09-19T02:07:56;19.20;99.90
2571;DHT22;1295;51.130;6.732;2023-09-19T02:10:22;19.60;99.90
2571;DHT22;1295;51.130;6.732;2023-09-19T02:12:48;18.60;99.90
2571;DHT22;1295;51.130;6.732;2023-09-19T02:15:14;18.80;99.90
2571;DHT22;1295;51.130;6.732;2023-09-19T02:17:40;18.20;99.90
2571;DHT22;1295;51.130;6.732;2023-09-19T02:20:06;18.80;99.90
2571;DHT22;1295;51.130;6.732;2023-09-19T02:22:33;19.10;99.90
2571;DHT22;1295;51.130;6.732;2023-09-19T02:24:59;19.10;99.90
2571;DHT22;1295;51.130;6.732;2023-09-19T02:27:24;18.70;99.90
2571;DHT22;1295;51.130;6.732;2023-09-19T02:29:50;18.90;99.90
2571;DHT22;1295;51.130;6.732;2023-09-19T02:32:15;18.30;99.90
2571;DHT22;1295;51.130;6.732;2023-09-19T02:34:41;19.10;99.90
2571;DHT22;1295;51.130;6.732;2023-09-19T02:37:07;18.70;99.90
2571;DHT22;1295;51.130;6.732;2023-09-19T02:39:33;18.60;99.90
2571;DHT22;1295;51.130;6.732;2023-09-19T02:41:58;18.30;99.90
2571;DHT22;1295;51.130;6.732;2023-09-19T02:44:25;18.30;99.90
2571;DHT22;1295;51.130;6.732;2023-09-19T02:46:51;18.30;99.90
2571;DHT22;1295;51.130;6.732;2023-09-19T02:49:16;18.30;99.90
2571;DHT22;1295;51.130;6.732;2023-09-19T02:51:47;18.40;99.90
2571;DHT22;1295;51.130;6.732;2023-09-19T02:54:25;18.30;99.90
2571;DHT22;1295;51.130;6.732;2023-09-19T02:56:50;18.30;99.90
2571;DHT22;1295;51.130;6.732;2023-09-19T02:59:16;19.20;99.90
2571;DHT22;1295;51.130;6.732;2023-09-19T03:01:43;19.10;99.90
2571;DHT22;1295;51.130;6.732;2023-09-19T03:04:09;18.80;99.90
2571;DHT22;1295;51.130;6.732;2023-09-19T03:06:35;18.80;99.90
2571;DHT22;1295;51.130;6.732;2023-09-19T03:09:00;19.10;99.90
2571;DHT22;1295;51.130;6.732;2023-09-19T03:11:26;18.50;99.90
2571;DHT22;1295;51.130;6.732;2023-09-19T03:13:52;18.80;99.90
2571;DHT22;1295;51.130;6.732;2023-09-19T03:16:17;18.70;99.90
2571;DHT22;1295;51.130;6.732;2023-09-19T03:18:44;19.10;99.90
2571;DHT22;1295;51.130;6.732;2023-09-19T03:21:09;19.10;99.90
2571;DHT22;1295;51.130;6.732;2023-09-19T03:23:35;19.10;99.90
2571;DHT22;1295;51.130;6.732;2023-09-19T03:26:01;19.20;99.90
2571;DHT22;1295;51.130;6.732;2023-09-19T03:28:27;19.10;99.90
2571;DHT22;1295;51.130;6.732;2023-09-19T03:30:59;19.20;99.90
2571;DHT22;1295;51.130;6.732;2023-09-19T03:33:25;19.20;99.90
2571;DHT22;1295;51.130;6.732;2023-09-19T03:35:52;19.20;99.90
2571;DHT22;1295;51.130;6.732;2023-09-19T03:38:17;18.20;99.90
2571;DHT22;1295;51.130;6.732;2023-09-19T03:40:43;18.60;99.90
2571;DHT22;1295;51.130;6.732;2023-09-19T03:43:09;18.90;99.90
2571;DHT22;1295;51.130;6.732;2023-09-19T03:45:35;18.90;99.90
2571;DHT22;1295;51.130;6.732;2023-09-19T03:48:00;18.80;99.90
2571;DHT22;1295;51.130;6.732;2023-09-19T03:50:26;18.50;99.90
2571;DHT22;1295;51.130;6.732;2023-09-19T03:52:56;18.80;99.90
2571;DHT22;1295;51.130;6.732;2023-09-19T03:55:18;18.60;99.90
2571;DHT22;1295;51.130;6.732;2023-09-19T03:57:47;19.00;99.90
2571;DHT22;1295;51.130;6.732;2023-09-19T04:00:10;19.00;99.90
2571;DHT22;1295;51.130;6.732;2023-09-19T04:02:38;18.20;99.90
2571;DHT22;1295;51.130;6.732;2023-09-19T04:05:03;18.20;99.90
2571;DHT22;1295;51.130;6.732;2023-09-19T04:07:30;18.60;99.90
2571;DHT22;1295;51.130;6.732;2023-09-19T04:09:55;18.50;99.90
2571;DHT22;1295;51.130;6.732;2023-09-19T04:12:21;18.30;99.90
2571;DHT22;1295;51.130;6.732;2023-09-19T04:14:46;18.80;99.90
2571;DHT22;1295;51.130;6.732;2023-09-19T04:17:12;18.80;99.90
2571;DHT22;1295;51.130;6.732;2023-09-19T04:19:43;18.70;99.90
2571;DHT22;1295;51.130;6.732;2023-09-19T04:22:08;18.20;99.90
2571;DHT22;1295;51.130;6.732;2023-09-19T04:24:34;18.60;99.90
2571;DHT22;1295;51.130;6.732;2023-09-19T04:27:00;18.40;99.90
2571;DHT22;1295;51.130;6.732;2023-09-19T04:29:25;18.60;99.90
2571;DHT22;1295;51.130;6.732;2023-09-19T04:31:51;18.30;99.90
2571;DHT22;1295;51.130;6.732;2023-09-19T04:34:17;18.60;99.90
2571;DHT22;1295;51.130;6.732;2023-09-19T04:36:42;18.40;99.90
2571;DHT22;1295;51.130;6.732;2023-09-19T04:39:09;18.30;99.90
2571;DHT22;1295;51.130;6.732;2023-09-19T04:41:34;18.30;99.90
2571;DHT22;1295;51.130;6.732;2023-09-19T04:44:00;18.60;99.90
2571;DHT22;1295;51.130;6.732;2023-09-19T04:46:25;18.60;99.90
2571;DHT22;1295;51.130;6.732;2023-09-19T04:48:51;18.80;99.90
2571;DHT22;1295;51.130;6.732;2023-09-19T04:51:17;19.00;99.90
2571;DHT22;1295;51.130;6.732;2023-09-19T04:53:42;18.80;99.90
2571;DHT22;1295;51.130;6.732;2023-09-19T04:56:08;18.10;99.90
2571;DHT22;1295;51.130;6.732;2023-09-19T04:58:34;18.10;99.90
2571;DHT22;1295;51.130;6.732;2023-09-19T05:01:00;18.10;99.90
2571;DHT22;1295;51.130;6.732;2023-09-19T05:03:26;18.20;99.90
2571;DHT22;1295;51.130;6.732;2023-09-19T05:05:51;18.50;99.90
2571;DHT22;1295;51.130;6.732;2023-09-19T05:08:17;17.90;99.90
2571;DHT22;1295;51.130;6.732;2023-09-19T05:10:42;18.40;99.90
2571;DHT22;1295;51.130;6.732;2023-09-19T05:13:08;18.90;99.90
2571;DHT22;1295;51.130;6.732;2023-09-19T05:15:34;19.30;99.90
2571;DHT22;1295;51.130;6.732;2023-09-19T05:17:59;18.40;99.90
2571;DHT22;1295;51.130;6.732;2023-09-19T05:20:25;18.90;99.90
2571;DHT22;1295;51.130;6.732;2023-09-19T05:23:01;18.40;99.90
2571;DHT22;1295;51.130;6.732;2023-09-19T05:25:26;18.50;99.90
2571;DHT22;1295;51.130;6.732;2023-09-19T05:27:53;18.90;99.90
2571;DHT22;1295;51.130;6.732;2023-09-19T05:30:18;18.60;99.90
2571;DHT22;1295;51.130;6.732;2023-09-19T05:32:44;19.00;99.90
2571;DHT22;1295;51.130;6.732;2023-09-19T05:35:10;18.10;99.90
2571;DHT22;1295;51.130;6.732;2023-09-19T05:37:35;18.50;99.90
2571;DHT22;1295;51.130;6.732;2023-09-19T05:40:01;18.70;99.90
2571;DHT22;1295;51.130;6.732;2023-09-19T05:42:27;18.90;99.90
2571;DHT22;1295;51.130;6.732;2023-09-19T05:44:52;18.90;99.90
2571;DHT22;1295;51.130;6.732;2023-09-19T05:47:18;18.60;99.90
2571;DHT22;1295;51.130;6.732;2023-09-19T05:49:43;18.20;99.90
2571;DHT22;1295;51.130;6.732;2023-09-19T05:52:09;18.60;99.90
2571;DHT22;1295;51.130;6.732;2023-09-19T05:54:35;18.70;99.90
2571;DHT22;1295;51.130;6.732;2023-09-19T05:57:00;19.00;99.90
2571;DHT22;1295;51.130;6.732;2023-09-19T05:59:27;18.60;99.90
2571;DHT22;1295;51.130;6.732;2023-09-19T06:01:52;18.60;99.90
2571;DHT22;1295;51.130;6.732;2023-09-19T06:04:18;18.30;99.90
2571;DHT22;1295;51.130;6.732;2023-09-19T06:06:44;18.80;99.90
2571;DHT22;1295;51.130;6.732;2023-09-19T06:09:09;18.30;99.90
2571;DHT22;1295;51.130;6.732;2023-09-19T06:11:36;17.80;99.90
2571;DHT22;1295;51.130;6.732;2023-09-19T06:14:02;17.80;99.90
2571;DHT22;1295;51.130;6.732;2023-09-19T06:16:29;17.80;99.90
2571;DHT22;1295;51.130;6.732;2023-09-19T06:18:55;18.60;99.90
2571;DHT22;1295;51.130;6.732;2023-09-19T06:21:22;18.60;99.90
2571;DHT22;1295;51.130;6.732;2023-09-19T06:23:47;18.50;99.90
2571;DHT22;1295;51.130;6.732;2023-09-19T06:26:12;18.70;99.90
2571;DHT22;1295;51.130;6.732;2023-09-19T06:28:38;18.40;99.90
2571;DHT22;1295;51.130;6.732;2023-09-19T06:31:05;18.70;99.90
2571;DHT22;1295;51.130;6.732;2023-09-19T06:33:30;18.60;99.90
2571;DHT22;1295;51.130;6.732;2023-09-19T06:35:56;18.60;99.90
2571;DHT22;1295;51.130;6.732;2023-09-19T06:38:22;18.10;99.90
2571;DHT22;1295;51.130;6.732;2023-09-19T06:40:47;18.80;99.90
2571;DHT22;1295;51.130;6.732;2023-09-19T06:43:13;18.50;99.90
2571;DHT22;1295;51.130;6.732;2023-09-19T06:45:39;18.70;99.90
2571;DHT22;1295;51.130;6.732;2023-09-19T06:48:05;18.60;99.90
2571;DHT22;1295;51.130;6.732;2023-09-19T06:50:30;18.10;99.90
2571;DHT22;1295;51.130;6.732;2023-09-19T06:52:56;17.40;99.90
2571;DHT22;1295;51.130;6.732;2023-09-19T06:55:22;16.50;99.90
2571;DHT22;1295;51.130;6.732;2023-09-19T06:57:47;17.30;99.90
2571;DHT22;1295;51.130;6.732;2023-09-19T07:00:14;18.10;99.90
2571;DHT22;1295;51.130;6.732;2023-09-19T07:02:41;18.40;99.90
2571;DHT22;1295;51.130;6.732;2023-09-19T07:05:07;18.10;99.90
2571;DHT22;1295;51.130;6.732;2023-09-19T07:07:33;18.10;99.90
2571;DHT22;1295;51.130;6.732;2023-09-19T07:09:59;18.10;99.90
2571;DHT22;1295;51.130;6.732;2023-09-19T07:12:24;18.00;99.90
2571;DHT22;1295;51.130;6.732;2023-09-19T07:14:51;17.30;99.90
2571;DHT22;1295;51.130;6.732;2023-09-19T07:17:17;17.80;99.90
2571;DHT22;1295;51.130;6.732;2023-09-19T07:19:44;18.70;99.90
2571;DHT22;1295;51.130;6.732;2023-09-19T07:22:14;18.60;99.90
2571;DHT22;1295;51.130;6.732;2023-09-19T07:24:41;18.00;99.90
2571;DHT22;1295;51.130;6.732;2023-09-19T07:27:06;17.90;99.90
2571;DHT22;1295;51.130;6.732;2023-09-19T07:29:32;17.90;99.90
2571;DHT22;1295;51.130;6.732;2023-09-19T07:31:58;18.20;99.90
2571;DHT22;1295;51.130;6.732;2023-09-19T07:34:23;17.80;99.90
2571;DHT22;1295;51.130;6.732;2023-09-19T07:36:49;18.00;99.90
2571;DHT22;1295;51.130;6.732;2023-09-19T07:39:14;17.80;99.90
2571;DHT22;1295;51.130;6.732;2023-09-19T07:41:41;17.80;99.90
2571;DHT22;1295;51.130;6.732;2023-09-19T07:44:06;17.80;99.90
2571;DHT22;1295;51.130;6.732;2023-09-19T07:46:32;17.50;99.90
2571;DHT22;1295;51.130;6.732;2023-09-19T07:48:58;17.80;99.90
2571;DHT22;1295;51.130;6.732;2023-09-19T07:51:23;18.30;99.90
2571;DHT22;1295;51.130;6.732;2023-09-19T07:53:49;18.20;99.90
2571;DHT22;1295;51.130;6.732;2023-09-19T07:56:15;18.30;99.90
2571;DHT22;1295;51.130;6.732;2023-09-19T07:58:41;18.60;99.90
2571;DHT22;1295;51.130;6.732;2023-09-19T08:01:06;19.00;99.90
2571;DHT22;1295;51.130;6.732;2023-09-19T08:03:33;18.60;99.90
2571;DHT22;1295;51.130;6.732;2023-09-19T08:05:58;18.70;99.90
2571;DHT22;1295;51.130;6.732;2023-09-19T08:08:24;18.60;99.90
2571;DHT22;1295;51.130;6.732;2023-09-19T08:10:54;18.90;99.90
2571;DHT22;1295;51.130;6.732;2023-09-19T08:13:19;18.80;99.90
2571;DHT22;1295;51.130;6.732;2023-09-19T08:15:44;19.00;99.90
2571;DHT22;1295;51.130;6.732;2023-09-19T08:18:10;18.80;99.90
2571;DHT22;1295;51.130;6.732;2023-09-19T08:20:36;18.80;99.90
2571;DHT22;1295;51.130;6.732;2023-09-19T08:23:02;19.00;99.90
2571;DHT22;1295;51.130;6.732;2023-09-19T08:25:27;18.70;99.90
2571;DHT22;1295;51.130;6.732;2023-09-19T08:27:54;19.20;99.90
2571;DHT22;1295;51.130;6.732;2023-09-19T08:30:20;19.20;99.90
2571;DHT22;1295;51.130;6.732;2023-09-19T08:32:45;19.10;99.90
2571;DHT22;1295;51.130;6.732;2023-09-19T08:35:11;18.80;99.90
2571;DHT22;1295;51.130;6.732;2023-09-19T08:37:37;18.80;99.90
2571;DHT22;1295;51.130;6.732;2023-09-19T08:40:04;18.80;99.90
2571;DHT22;1295;51.130;6.732;2023-09-19T08:42:29;19.10;99.90
2571;DHT22;1295;51.130;6.732;2023-09-19T08:44:55;19.30;99.90
2571;DHT22;1295;51.130;6.732;2023-09-19T08:47:31;19.30;99.90
2571;DHT22;1295;51.130;6.732;2023-09-19T08:50:00;19.50;99.90
2571;DHT22;1295;51.130;6.732;2023-09-19T08:52:22;19.30;99.90
2571;DHT22;1295;51.130;6.732;2023-09-19T08:54:45;18.90;99.90
2571;DHT22;1295;51.130;6.732;2023-09-19T08:57:11;19.40;99.90
2571;DHT22;1295;51.130;6.732;2023-09-19T08:59:38;19.50;99.90
2571;DHT22;1295;51.130;6.732;2023-09-19T09:02:03;19.50;99.90
2571;DHT22;1295;51.130;6.732;2023-09-19T09:04:29;19.60;99.90
2571;DHT22;1295;51.130;6.732;2023-09-19T09:06:54;19.90;99.90
2571;DHT22;1295;51.130;6.732;2023-09-19T09:09:21;19.90;99.90
2571;DHT22;1295;51.130;6.732;2023-09-19T09:11:48;20.10;99.90
2571;DHT22;1295;51.130;6.732;2023-09-19T09:14:13;20.00;99.90
2571;DHT22;1295;51.130;6.732;2023-09-19T09:16:38;20.00;99.90
2571;DHT22;1295;51.130;6.732;2023-09-19T09:19:04;20.30;99.90
2571;DHT22;1295;51.130;6.732;2023-09-19T09:21:30;20.30;99.90
2571;DHT22;1295;51.130;6.732;2023-09-19T09:23:55;19.90;99.90
2571;DHT22;1295;51.130;6.732;2023-09-19T09:28:55;20.50;99.90
2571;DHT22;1295;51.130;6.732;2023-09-19T09:31:23;20.50;99.90
2571;DHT22;1295;51.130;6.732;2023-09-19T09:33:54;20.20;99.90
2571;DHT22;1295;51.130;6.732;2023-09-19T09:36:19;20.50;99.90
2571;DHT22;1295;51.130;6.732;2023-09-19T09:38:45;20.60;99.90
2571;DHT22;1295;51.130;6.732;2023-09-19T09:41:11;20.60;99.90
2571;DHT22;1295;51.130;6.732;2023-09-19T09:43:37;20.60;99.90
2571;DHT22;1295;51.130;6.732;2023-09-19T09:46:14;20.60;99.90
2571;DHT22;1295;51.130;6.732;2023-09-19T09:48:44;20.70;99.90
2571;DHT22;1295;51.130;6.732;2023-09-19T09:51:10;20.90;99.90
2571;DHT22;1295;51.130;6.732;2023-09-19T09:53:35;20.90;99.90
2571;DHT22;1295;51.130;6.732;2023-09-19T09:56:04;20.60;99.90
2571;DHT22;1295;51.130;6.732;2023-09-19T09:58:32;20.60;99.90
2571;DHT22;1295;51.130;6.732;2023-09-19T10:00:58;20.30;99.90
2571;DHT22;1295;51.130;6.732;2023-09-19T10:03:32;20.30;99.90
2571;DHT22;1295;51.130;6.732;2023-09-19T10:05:57;20.60;99.90
2571;DHT22;1295;51.130;6.732;2023-09-19T10:08:24;20.70;99.90
2571;DHT22;1295;51.130;6.732;2023-09-19T10:10:49;20.70;99.90
2571;DHT22;1295;51.130;6.732;2023-09-19T10:13:20;21.00;99.90
2571;DHT22;1295;51.130;6.732;2023-09-19T10:15:47;21.00;99.90
2571;DHT22;1295;51.130;6.732;2023-09-19T10:18:10;21.10;99.90
2571;DHT22;1295;51.130;6.732;2023-09-19T10:20:37;21.00;99.90
2571;DHT22;1295;51.130;6.732;2023-09-19T10:23:05;21.00;99.90
2571;DHT22;1295;51.130;6.732;2023-09-19T10:25:29;20.90;99.90
2571;DHT22;1295;51.130;6.732;2023-09-19T10:27:55;20.80;99.90
2571;DHT22;1295;51.130;6.732;2023-09-19T10:30:22;20.80;99.90
2571;DHT22;1295;51.130;6.732;2023-09-19T10:32:47;20.70;99.90
2571;DHT22;1295;51.130;6.732;2023-09-19T10:35:12;20.40;99.90
2571;DHT22;1295;51.130;6.732;2023-09-19T10:37:38;20.60;99.90
2571;DHT22;1295;51.130;6.732;2023-09-19T10:40:05;20.70;99.90
2571;DHT22;1295;51.130;6.732;2023-09-19T10:42:31;20.90;99.90
2571;DHT22;1295;51.130;6.732;2023-09-19T10:44:57;20.90;99.90
2571;DHT22;1295;51.130;6.732;2023-09-19T10:47:23;20.60;99.90
2571;DHT22;1295;51.130;6.732;2023-09-19T10:49:48;20.50;99.90
2571;DHT22;1295;51.130;6.732;2023-09-19T10:52:14;20.60;99.90
2571;DHT22;1295;51.130;6.732;2023-09-19T10:54:41;20.90;99.90
2571;DHT22;1295;51.130;6.732;2023-09-19T10:57:05;20.80;99.90
2571;DHT22;1295;51.130;6.732;2023-09-19T10:59:31;20.90;99.90
2571;DHT22;1295;51.130;6.732;2023-09-19T11:01:56;20.80;99.90
2571;DHT22;1295;51.130;6.732;2023-09-19T11:04:28;20.80;99.90
2571;DHT22;1295;51.130;6.732;2023-09-19T11:06:59;20.80;99.90
2571;DHT22;1295;51.130;6.732;2023-09-19T11:09:24;21.00;99.90
2571;DHT22;1295;51.130;6.732;2023-09-19T11:11:50;21.20;99.90
2571;DHT22;1295;51.130;6.732;2023-09-19T11:14:37;21.30;99.90
2571;DHT22;1295;51.130;6.732;2023-09-19T11:17:35;21.30;99.90
2571;DHT22;1295;51.130;6.732;2023-09-19T11:20:18;21.30;99.90
2571;DHT22;1295;51.130;6.732;2023-09-19T11:23:20;21.40;99.90
2571;DHT22;1295;51.130;6.732;2023-09-19T11:25:46;21.30;99.90
2571;DHT22;1295;51.130;6.732;2023-09-19T11:28:27;21.10;99.90
2571;DHT22;1295;51.130;6.732;2023-09-19T11:30:53;21.50;99.90
2571;DHT22;1295;51.130;6.732;2023-09-19T11:33:27;21.70;99.90
2571;DHT22;1295;51.130;6.732;2023-09-19T11:36:02;21.30;99.90
2571;DHT22;1295;51.130;6.732;2023-09-19T11:41:36;21.60;99.90
2571;DHT22;1295;51.130;6.732;2023-09-19T11:44:32;21.60;99.90
2571;DHT22;1295;51.130;6.732;2023-09-19T11:46:57;21.80;99.90
2571;DHT22;1295;51.130;6.732;2023-09-19T11:49:26;21.50;99.90
2571;DHT22;1295;51.130;6.732;2023-09-19T11:51:51;21.60;99.90
2571;DHT22;1295;51.130;6.732;2023-09-19T11:54:17;21.80;99.90
2571;DHT22;1295;51.130;6.732;2023-09-19T11:56:44;21.60;99.90
2571;DHT22;1295;51.130;6.732;2023-09-19T11:59:10;21.60;99.90
2571;DHT22;1295;51.130;6.732;2023-09-19T12:01:35;21.70;99.90
2571;DHT22;1295;51.130;6.732;2023-09-19T12:04:02;21.70;99.90
2571;DHT22;1295;51.130;6.732;2023-09-19T12:06:28;21.80;99.90
2571;DHT22;1295;51.130;6.732;2023-09-19T12:08:53;21.70;99.90
2571;DHT22;1295;51.130;6.732;2023-09-19T12:11:20;21.90;99.90
2571;DHT22;1295;51.130;6.732;2023-09-19T12:13:46;22.00;99.90
2571;DHT22;1295;51.130;6.732;2023-09-19T12:16:16;22.00;99.90
2571;DHT22;1295;51.130;6.732;2023-09-19T12:18:41;22.00;99.90
2571;DHT22;1295;51.130;6.732;2023-09-19T12:21:07;22.00;99.90
2571;DHT22;1295;51.130;6.732;2023-09-19T12:23:33;22.20;99.90
2571;DHT22;1295;51.130;6.732;2023-09-19T12:25:58;22.10;99.90
2571;DHT22;1295;51.130;6.732;2023-09-19T12:28:26;22.00;99.90
2571;DHT22;1295;51.130;6.732;2023-09-19T12:30:51;22.10;99.90
2571;DHT22;1295;51.130;6.732;2023-09-19T12:33:17;22.10;99.90
2571;DHT22;1295;51.130;6.732;2023-09-19T12:35:42;22.00;99.90
2571;DHT22;1295;51.130;6.732;2023-09-19T12:38:08;21.90;99.90
2571;DHT22;1295;51.130;6.732;2023-09-19T12:40:34;21.90;99.90
2571;DHT22;1295;51.130;6.732;2023-09-19T12:43:00;21.90;99.90
2571;DHT22;1295;51.130;6.732;2023-09-19T12:45:26;22.00;99.90
2571;DHT22;1295;51.130;6.732;2023-09-19T12:50:29;22.00;99.90
2571;DHT22;1295;51.130;6.732;2023-09-19T12:52:55;22.00;99.90
2571;DHT22;1295;51.130;6.732;2023-09-19T12:55:22;21.60;99.90
2571;DHT22;1295;51.130;6.732;2023-09-19T13:00:41;21.40;99.90
2571;DHT22;1295;51.130;6.732;2023-09-19T13:03:18;21.70;99.90
2571;DHT22;1295;51.130;6.732;2023-09-19T13:06:02;21.80;99.90
2571;DHT22;1295;51.130;6.732;2023-09-19T13:08:29;21.80;99.90
2571;DHT22;1295;51.130;6.732;2023-09-19T13:11:01;21.70;99.90
2571;DHT22;1295;51.130;6.732;2023-09-19T13:13:26;21.70;99.90
2571;DHT22;1295;51.130;6.732;2023-09-19T13:15:52;21.70;99.90
2571;DHT22;1295;51.130;6.732;2023-09-19T13:18:17;21.70;99.90
2571;DHT22;1295;51.130;6.732;2023-09-19T13:20:43;21.70;99.90
2571;DHT22;1295;51.130;6.732;2023-09-19T13:23:08;21.80;99.90
2571;DHT22;1295;51.130;6.732;2023-09-19T13:25:34;21.70;99.90
2571;DHT22;1295;51.130;6.732;2023-09-19T13:28:00;21.80;99.90
2571;DHT22;1295;51.130;6.732;2023-09-19T13:30:27;21.70;99.90
2571;DHT22;1295;51.130;6.732;2023-09-19T13:35:26;21.70;99.90
2571;DHT22;1295;51.130;6.732;2023-09-19T13:37:52;21.70;99.90
2571;DHT22;1295;51.130;6.732;2023-09-19T13:40:17;21.70;99.90
2571;DHT22;1295;51.130;6.732;2023-09-19T13:42:43;21.70;99.90
2571;DHT22;1295;51.130;6.732;2023-09-19T13:45:09;21.80;99.90
2571;DHT22;1295;51.130;6.732;2023-09-19T13:47:34;21.70;99.90
2571;DHT22;1295;51.130;6.732;2023-09-19T13:50:01;21.50;99.90
2571;DHT22;1295;51.130;6.732;2023-09-19T13:52:26;21.60;99.90
2571;DHT22;1295;51.130;6.732;2023-09-19T13:54:53;21.40;99.90
2571;DHT22;1295;51.130;6.732;2023-09-19T13:57:18;21.40;99.90
2571;DHT22;1295;51.130;6.732;2023-09-19T13:59:44;21.20;99.90
2571;DHT22;1295;51.130;6.732;2023-09-19T14:02:09;20.80;99.90
2571;DHT22;1295;51.130;6.732;2023-09-19T14:04:35;21.20;99.90
2571;DHT22;1295;51.130;6.732;2023-09-19T14:07:01;21.10;99.90
2571;DHT22;1295;51.130;6.732;2023-09-19T14:09:27;20.70;99.90
2571;DHT22;1295;51.130;6.732;2023-09-19T14:11:53;20.70;99.90
2571;DHT22;1295;51.130;6.732;2023-09-19T14:14:19;21.00;99.90
2571;DHT22;1295;51.130;6.732;2023-09-19T14:16:44;21.00;99.90
2571;DHT22;1295;51.130;6.732;2023-09-19T14:19:10;21.00;99.90
2571;DHT22;1295;51.130;6.732;2023-09-19T14:21:35;20.80;99.90
2571;DHT22;1295;51.130;6.732;2023-09-19T14:24:01;21.00;99.90
2571;DHT22;1295;51.130;6.732;2023-09-19T14:26:27;21.10;99.90
2571;DHT22;1295;51.130;6.732;2023-09-19T14:28:53;21.10;99.90
2571;DHT22;1295;51.130;6.732;2023-09-19T14:31:18;21.20;99.90
2571;DHT22;1295;51.130;6.732;2023-09-19T14:33:44;21.30;99.90
2571;DHT22;1295;51.130;6.732;2023-09-19T14:36:10;21.20;99.90
2571;DHT22;1295;51.130;6.732;2023-09-19T14:38:37;21.20;99.90
2571;DHT22;1295;51.130;6.732;2023-09-19T14:41:03;21.00;99.90
2571;DHT22;1295;51.130;6.732;2023-09-19T14:43:28;20.90;99.90
2571;DHT22;1295;51.130;6.732;2023-09-19T14:45:55;20.90;99.90
2571;DHT22;1295;51.130;6.732;2023-09-19T14:48:20;21.00;99.90
2571;DHT22;1295;51.130;6.732;2023-09-19T14:50:46;21.00;99.90
2571;DHT22;1295;51.130;6.732;2023-09-19T14:53:12;21.00;99.90
2571;DHT22;1295;51.130;6.732;2023-09-19T14:55:37;21.00;99.90
2571;DHT22;1295;51.130;6.732;2023-09-19T14:58:03;20.90;99.90
2571;DHT22;1295;51.130;6.732;2023-09-19T15:00:29;20.90;99.90
2571;DHT22;1295;51.130;6.732;2023-09-19T15:02:54;20.90;99.90
2571;DHT22;1295;51.130;6.732;2023-09-19T15:05:20;20.90;99.90
2571;DHT22;1295;51.130;6.732;2023-09-19T15:07:46;20.70;99.90
2571;DHT22;1295;51.130;6.732;2023-09-19T15:10:12;20.60;99.90
2571;DHT22;1295;51.130;6.732;2023-09-19T15:12:38;20.70;99.90
2571;DHT22;1295;51.130;6.732;2023-09-19T15:15:04;20.40;99.90
2571;DHT22;1295;51.130;6.732;2023-09-19T15:17:30;20.60;99.90
2571;DHT22;1295;51.130;6.732;2023-09-19T15:19:55;20.60;99.90
2571;DHT22;1295;51.130;6.732;2023-09-19T15:22:22;20.50;99.90
2571;DHT22;1295;51.130;6.732;2023-09-19T15:24:47;20.50;99.90
2571;DHT22;1295;51.130;6.732;2023-09-19T15:27:13;20.60;99.90
2571;DHT22;1295;51.130;6.732;2023-09-19T15:29:39;20.40;99.90
2571;DHT22;1295;51.130;6.732;2023-09-19T15:32:04;20.30;99.90
2571;DHT22;1295;51.130;6.732;2023-09-19T15:34:31;20.70;99.90
2571;DHT22;1295;51.130;6.732;2023-09-19T15:36:56;20.70;99.90
2571;DHT22;1295;51.130;6.732;2023-09-19T15:39:22;20.80;99.90
2571;DHT22;1295;51.130;6.732;2023-09-19T15:41:48;20.70;99.90
2571;DHT22;1295;51.130;6.732;2023-09-19T15:44:17;20.70;99.90
2571;DHT22;1295;51.130;6.732;2023-09-19T15:46:39;20.50;99.90
2571;DHT22;1295;51.130;6.732;2023-09-19T15:49:05;20.60;99.90
2571;DHT22;1295;51.130;6.732;2023-09-19T15:51:30;20.70;99.90
2571;DHT22;1295;51.130;6.732;2023-09-19T15:53:56;20.80;99.90
2571;DHT22;1295;51.130;6.732;2023-09-19T15:56:22;20.70;99.90
2571;DHT22;1295;51.130;6.732;2023-09-19T15:58:49;20.60;99.90
2571;DHT22;1295;51.130;6.732;2023-09-19T16:01:14;20.60;99.90
2571;DHT22;1295;51.130;6.732;2023-09-19T16:03:48;20.70;99.90
2571;DHT22;1295;51.130;6.732;2023-09-19T16:06:14;20.40;99.90
2571;DHT22;1295;51.130;6.732;2023-09-19T16:08:41;20.40;99.90
2571;DHT22;1295;51.130;6.732;2023-09-19T16:11:06;20.40;99.90
2571;DHT22;1295;51.130;6.732;2023-09-19T16:13:31;20.50;99.90
2571;DHT22;1295;51.130;6.732;2023-09-19T16:15:57;20.50;99.90